sensor_id;sensor_type;location;lat;lon;timestamp;temperature;humidity
25973;DHT22;13765;51.166;4.466;2023-07-02T00:01:51;17.90;99.90
25973;DHT22;13765;51.166;4.466;2023-07-02T00:04:17;17.90;99.90
25973;DHT22;13765;51.166;4.466;2023-07-02T00:06:48;17.90;99.90
25973;DHT22;13765;51.166;4.466;2023-07-02T00:09:15;17.90;99.90
25973;DHT22;13765;51.166;4.466;2023-07-02T00:11:45;17.90;99.90
25973;DHT22;13765;51.166;4.466;2023-07-02T00:14:12;18.00;99.90
25973;DHT22;13765;51.166;4.466;2023-07-02T00:16:39;17.90;99.90
25973;DHT22;13765;51.166;4.466;2023-07-02T00:19:06;17.90;99.90
25973;DHT22;13765;51.166;4.466;2023-07-02T00:21:31;17.90;99.90
25973;DHT22;13765;51.166;4.466;2023-07-02T00:24:01;17.90;99.90
25973;DHT22;13765;51.166;4.466;2023-07-02T00:26:29;17.90;99.90
25973;DHT22;13765;51.166;4.466;2023-07-02T00:28:57;17.90;99.90
25973;DHT22;13765;51.166;4.466;2023-07-02T00:31:23;17.90;99.90
25973;DHT22;13765;51.166;4.466;2023-07-02T00:33:52;18.00;99.90
25973;DHT22;13765;51.166;4.466;2023-07-02T00:36:18;18.00;99.90
25973;DHT22;13765;51.166;4.466;2023-07-02T00:38:47;18.00;99.90
25973;DHT22;13765;51.166;4.466;2023-07-02T00:41:13;17.90;99.90
25973;DHT22;13765;51.166;4.466;2023-07-02T00:43:39;17.90;99.90
25973;DHT22;13765;51.166;4.466;2023-07-02T00:46:16;17.90;99.90
25973;DHT22;13765;51.166;4.466;2023-07-02T00:48:52;17.80;99.90
25973;DHT22;13765;51.166;4.466;2023-07-02T00:51:25;17.80;99.90
25973;DHT22;13765;51.166;4.466;2023-07-02T00:53:53;17.70;99.90
25973;DHT22;13765;51.166;4.466;2023-07-02T00:56:20;17.80;99.90
25973;DHT22;13765;51.166;4.466;2023-07-02T00:58:47;17.80;99.90
25973;DHT22;13765;51.166;4.466;2023-07-02T01:01:21;17.80;99.90
25973;DHT22;13765;51.166;4.466;2023-07-02T01:04:00;17.90;99.90
25973;DHT22;13765;51.166;4.466;2023-07-02T01:06:34;17.90;99.90
25973;DHT22;13765;51.166;4.466;2023-07-02T01:09:05;17.90;99.90
25973;DHT22;13765;51.166;4.466;2023-07-02T01:11:55;18.00;99.90
25973;DHT22;13765;51.166;4.466;2023-07-02T01:14:33;18.00;99.90
25973;DHT22;13765;51.166;4.466;2023-07-02T01:17:00;18.00;99.90
25973;DHT22;13765;51.166;4.466;2023-07-02T01:22:08;18.10;99.90
25973;DHT22;13765;51.166;4.466;2023-07-02T01:24:36;18.10;99.90
25973;DHT22;13765;51.166;4.466;2023-07-02T01:27:01;18.10;99.90
25973;DHT22;13765;51.166;4.466;2023-07-02T01:29:29;18.00;99.90
25973;DHT22;13765;51.166;4.466;2023-07-02T01:31:56;17.90;99.90
25973;DHT22;13765;51.166;4.466;2023-07-02T01:34:24;18.00;99.90
25973;DHT22;13765;51.166;4.466;2023-07-02T01:36:49;18.00;99.90
25973;DHT22;13765;51.166;4.466;2023-07-02T01:39:15;18.00;99.90
25973;DHT22;13765;51.166;4.466;2023-07-02T01:41:51;17.90;99.90
25973;DHT22;13765;51.166;4.466;2023-07-02T01:44:18;18.00;99.90
25973;DHT22;13765;51.166;4.466;2023-07-02T01:46:44;18.10;99.90
25973;DHT22;13765;51.166;4.466;2023-07-02T01:49:14;18.10;99.90
25973;DHT22;13765;51.166;4.466;2023-07-02T01:51:40;18.00;99.90
25973;DHT22;13765;51.166;4.466;2023-07-02T01:54:08;17.90;99.90
25973;DHT22;13765;51.166;4.466;2023-07-02T01:56:34;17.90;99.90
25973;DHT22;13765;51.166;4.466;2023-07-02T01:58:59;18.00;99.90
25973;DHT22;13765;51.166;4.466;2023-07-02T02:01:25;18.00;99.90
25973;DHT22;13765;51.166;4.466;2023-07-02T02:03:50;18.00;99.90
25973;DHT22;13765;51.166;4.466;2023-07-02T02:06:16;17.80;99.90
25973;DHT22;13765;51.166;4.466;2023-07-02T02:08:42;17.90;99.90
25973;DHT22;13765;51.166;4.466;2023-07-02T02:11:07;17.90;99.90
25973;DHT22;13765;51.166;4.466;2023-07-02T02:13:33;17.90;99.90
25973;DHT22;13765;51.166;4.466;2023-07-02T02:15:59;17.90;99.90
25973;DHT22;13765;51.166;4.466;2023-07-02T02:18:26;17.80;99.90
25973;DHT22;13765;51.166;4.466;2023-07-02T02:20:52;17.70;99.90
25973;DHT22;13765;51.166;4.466;2023-07-02T02:23:18;17.50;99.90
25973;DHT22;13765;51.166;4.466;2023-07-02T02:25:43;17.50;99.90
25973;DHT22;13765;51.166;4.466;2023-07-02T02:28:09;17.50;99.90
25973;DHT22;13765;51.166;4.466;2023-07-02T02:30:34;17.50;99.90
25973;DHT22;13765;51.166;4.466;2023-07-02T02:33:00;17.50;99.90
25973;DHT22;13765;51.166;4.466;2023-07-02T02:35:26;17.60;99.90
25973;DHT22;13765;51.166;4.466;2023-07-02T02:37:52;17.40;99.90
25973;DHT22;13765;51.166;4.466;2023-07-02T02:40:18;17.40;99.90
25973;DHT22;13765;51.166;4.466;2023-07-02T02:42:45;17.40;99.90
25973;DHT22;13765;51.166;4.466;2023-07-02T02:45:11;17.40;99.90
25973;DHT22;13765;51.166;4.466;2023-07-02T02:47:37;17.40;99.90
25973;DHT22;13765;51.166;4.466;2023-07-02T02:50:03;17.30;99.90
25973;DHT22;13765;51.166;4.466;2023-07-02T02:52:28;17.30;99.90
25973;DHT22;13765;51.166;4.466;2023-07-02T02:54:54;17.30;99.90
25973;DHT22;13765;51.166;4.466;2023-07-02T02:57:20;17.20;99.90
25973;DHT22;13765;51.166;4.466;2023-07-02T02:59:45;17.10;99.90
25973;DHT22;13765;51.166;4.466;2023-07-02T03:02:11;17.20;99.90
25973;DHT22;13765;51.166;4.466;2023-07-02T03:04:37;17.10;99.90
25973;DHT22;13765;51.166;4.466;2023-07-02T03:07:07;17.10;99.90
25973;DHT22;13765;51.166;4.466;2023-07-02T03:09:33;17.30;99.90
25973;DHT22;13765;51.166;4.466;2023-07-02T03:12:01;17.20;99.90
25973;DHT22;13765;51.166;4.466;2023-07-02T03:14:27;17.20;99.90
25973;DHT22;13765;51.166;4.466;2023-07-02T03:16:53;17.30;99.90
25973;DHT22;13765;51.166;4.466;2023-07-02T03:19:18;17.20;99.90
25973;DHT22;13765;51.166;4.466;2023-07-02T03:21:44;17.20;99.90
25973;DHT22;13765;51.166;4.466;2023-07-02T03:24:09;17.10;99.90
25973;DHT22;13765;51.166;4.466;2023-07-02T03:26:42;17.10;99.90
25973;DHT22;13765;51.166;4.466;2023-07-02T03:29:08;17.10;99.90
25973;DHT22;13765;51.166;4.466;2023-07-02T03:31:34;17.20;99.90
25973;DHT22;13765;51.166;4.466;2023-07-02T03:34:11;17.10;99.90
25973;DHT22;13765;51.166;4.466;2023-07-02T03:36:39;17.10;99.90
25973;DHT22;13765;51.166;4.466;2023-07-02T03:39:07;17.10;99.90
25973;DHT22;13765;51.166;4.466;2023-07-02T03:41:33;17.00;99.90
25973;DHT22;13765;51.166;4.466;2023-07-02T03:43:58;16.90;99.90
25973;DHT22;13765;51.166;4.466;2023-07-02T03:46:24;17.00;99.90
25973;DHT22;13765;51.166;4.466;2023-07-02T03:48:52;17.00;99.90
25973;DHT22;13765;51.166;4.466;2023-07-02T03:51:19;17.00;99.90
25973;DHT22;13765;51.166;4.466;2023-07-02T03:53:47;17.10;99.90
25973;DHT22;13765;51.166;4.466;2023-07-02T03:56:13;17.00;99.90
25973;DHT22;13765;51.166;4.466;2023-07-02T03:58:40;17.00;99.90
25973;DHT22;13765;51.166;4.466;2023-07-02T04:01:05;17.00;99.90
25973;DHT22;13765;51.166;4.466;2023-07-02T04:03:31;17.00;99.90
25973;DHT22;13765;51.166;4.466;2023-07-02T04:05:57;17.00;99.90
25973;DHT22;13765;51.166;4.466;2023-07-02T04:08:22;17.10;99.90
25973;DHT22;13765;51.166;4.466;2023-07-02T04:10:50;17.00;99.90
25973;DHT22;13765;51.166;4.466;2023-07-02T04:13:16;17.10;99.90
25973;DHT22;13765;51.166;4.466;2023-07-02T04:15:44;17.00;99.90
25973;DHT22;13765;51.166;4.466;2023-07-02T04:18:13;17.10;99.90
25973;DHT22;13765;51.166;4.466;2023-07-02T04:20:38;17.10;99.90
25973;DHT22;13765;51.166;4.466;2023-07-02T04:23:07;17.10;99.90
25973;DHT22;13765;51.166;4.466;2023-07-02T04:25:33;17.20;99.90
25973;DHT22;13765;51.166;4.466;2023-07-02T04:27:59;17.20;99.90
25973;DHT22;13765;51.166;4.466;2023-07-02T04:30:25;17.20;99.90
25973;DHT22;13765;51.166;4.466;2023-07-02T04:32:51;17.30;99.90
25973;DHT22;13765;51.166;4.466;2023-07-02T04:35:17;17.20;99.90
25973;DHT22;13765;51.166;4.466;2023-07-02T04:37:46;17.20;99.90
25973;DHT22;13765;51.166;4.466;2023-07-02T04:40:11;17.20;99.90
25973;DHT22;13765;51.166;4.466;2023-07-02T04:42:38;17.20;99.90
25973;DHT22;13765;51.166;4.466;2023-07-02T04:45:05;17.30;99.90
25973;DHT22;13765;51.166;4.466;2023-07-02T04:47:32;17.30;99.90
25973;DHT22;13765;51.166;4.466;2023-07-02T04:49:59;17.40;99.90
25973;DHT22;13765;51.166;4.466;2023-07-02T04:52:24;17.40;99.90
25973;DHT22;13765;51.166;4.466;2023-07-02T04:54:50;17.20;99.90
25973;DHT22;13765;51.166;4.466;2023-07-02T04:57:16;17.30;99.90
25973;DHT22;13765;51.166;4.466;2023-07-02T04:59:42;17.30;99.90
25973;DHT22;13765;51.166;4.466;2023-07-02T05:02:08;17.40;99.90
25973;DHT22;13765;51.166;4.466;2023-07-02T05:04:36;17.50;99.90
25973;DHT22;13765;51.166;4.466;2023-07-02T05:07:05;17.60;99.90
25973;DHT22;13765;51.166;4.466;2023-07-02T05:09:30;17.60;99.90
25973;DHT22;13765;51.166;4.466;2023-07-02T05:11:58;17.70;99.90
25973;DHT22;13765;51.166;4.466;2023-07-02T05:14:24;17.70;99.90
25973;DHT22;13765;51.166;4.466;2023-07-02T05:16:50;17.70;99.90
25973;DHT22;13765;51.166;4.466;2023-07-02T05:19:20;17.60;99.90
25973;DHT22;13765;51.166;4.466;2023-07-02T05:21:46;17.50;99.90
25973;DHT22;13765;51.166;4.466;2023-07-02T05:24:11;17.60;99.90
25973;DHT22;13765;51.166;4.466;2023-07-02T05:26:37;17.70;99.90
25973;DHT22;13765;51.166;4.466;2023-07-02T05:29:03;17.80;99.90
25973;DHT22;13765;51.166;4.466;2023-07-02T05:31:31;17.80;99.90
25973;DHT22;13765;51.166;4.466;2023-07-02T05:33:57;17.70;99.90
25973;DHT22;13765;51.166;4.466;2023-07-02T05:36:22;17.70;99.90
25973;DHT22;13765;51.166;4.466;2023-07-02T05:38:48;17.80;99.90
25973;DHT22;13765;51.166;4.466;2023-07-02T05:41:23;17.80;99.90
25973;DHT22;13765;51.166;4.466;2023-07-02T05:43:49;17.80;99.90
25973;DHT22;13765;51.166;4.466;2023-07-02T05:46:15;17.80;99.90
25973;DHT22;13765;51.166;4.466;2023-07-02T05:48:43;18.00;99.90
25973;DHT22;13765;51.166;4.466;2023-07-02T05:51:09;18.00;99.90
25973;DHT22;13765;51.166;4.466;2023-07-02T05:53:36;18.10;99.90
25973;DHT22;13765;51.166;4.466;2023-07-02T05:56:04;18.10;99.90
25973;DHT22;13765;51.166;4.466;2023-07-02T05:58:30;18.30;99.90
25973;DHT22;13765;51.166;4.466;2023-07-02T06:00:56;18.30;99.90
25973;DHT22;13765;51.166;4.466;2023-07-02T06:03:21;18.30;99.90
25973;DHT22;13765;51.166;4.466;2023-07-02T06:05:48;18.40;99.90
25973;DHT22;13765;51.166;4.466;2023-07-02T06:08:20;18.50;99.90
25973;DHT22;13765;51.166;4.466;2023-07-02T06:10:48;18.60;99.90
25973;DHT22;13765;51.166;4.466;2023-07-02T06:13:16;18.70;99.90
25973;DHT22;13765;51.166;4.466;2023-07-02T06:15:43;18.70;99.90
25973;DHT22;13765;51.166;4.466;2023-07-02T06:18:09;18.70;99.90
25973;DHT22;13765;51.166;4.466;2023-07-02T06:20:35;18.80;99.90
25973;DHT22;13765;51.166;4.466;2023-07-02T06:23:00;18.80;99.90
25973;DHT22;13765;51.166;4.466;2023-07-02T06:25:26;18.90;99.90
25973;DHT22;13765;51.166;4.466;2023-07-02T06:27:52;18.90;99.90
25973;DHT22;13765;51.166;4.466;2023-07-02T06:30:21;19.10;99.90
25973;DHT22;13765;51.166;4.466;2023-07-02T06:32:46;19.20;99.90
25973;DHT22;13765;51.166;4.466;2023-07-02T06:35:12;19.40;99.90
25973;DHT22;13765;51.166;4.466;2023-07-02T06:37:40;19.30;99.90
25973;DHT22;13765;51.166;4.466;2023-07-02T06:40:06;19.00;99.90
25973;DHT22;13765;51.166;4.466;2023-07-02T06:42:32;19.00;99.90
25973;DHT22;13765;51.166;4.466;2023-07-02T06:44:58;19.20;99.90
25973;DHT22;13765;51.166;4.466;2023-07-02T06:47:26;19.40;99.90
25973;DHT22;13765;51.166;4.466;2023-07-02T06:49:52;19.40;99.90
25973;DHT22;13765;51.166;4.466;2023-07-02T06:52:18;19.50;99.90
25973;DHT22;13765;51.166;4.466;2023-07-02T06:54:44;19.50;99.90
25973;DHT22;13765;51.166;4.466;2023-07-02T06:57:10;19.70;99.90
25973;DHT22;13765;51.166;4.466;2023-07-02T06:59:37;19.80;99.90
25973;DHT22;13765;51.166;4.466;2023-07-02T07:02:03;20.00;99.90
25973;DHT22;13765;51.166;4.466;2023-07-02T07:04:29;20.10;99.90
25973;DHT22;13765;51.166;4.466;2023-07-02T07:06:55;20.10;99.90
25973;DHT22;13765;51.166;4.466;2023-07-02T07:09:27;19.90;99.90
25973;DHT22;13765;51.166;4.466;2023-07-02T07:11:52;19.90;99.90
25973;DHT22;13765;51.166;4.466;2023-07-02T07:14:18;19.90;99.90
25973;DHT22;13765;51.166;4.466;2023-07-02T07:16:43;19.90;99.90
25973;DHT22;13765;51.166;4.466;2023-07-02T07:19:11;20.00;99.90
25973;DHT22;13765;51.166;4.466;2023-07-02T07:21:37;20.10;99.90
25973;DHT22;13765;51.166;4.466;2023-07-02T07:24:02;20.10;99.90
25973;DHT22;13765;51.166;4.466;2023-07-02T07:26:28;20.00;99.90
25973;DHT22;13765;51.166;4.466;2023-07-02T07:28:54;20.10;99.90
25973;DHT22;13765;51.166;4.466;2023-07-02T07:31:21;20.10;99.90
25973;DHT22;13765;51.166;4.466;2023-07-02T07:33:47;20.30;99.90
25973;DHT22;13765;51.166;4.466;2023-07-02T07:36:12;20.40;99.90
25973;DHT22;13765;51.166;4.466;2023-07-02T07:38:39;20.50;99.90
25973;DHT22;13765;51.166;4.466;2023-07-02T07:41:05;20.40;99.90
25973;DHT22;13765;51.166;4.466;2023-07-02T07:43:31;20.60;99.90
25973;DHT22;13765;51.166;4.466;2023-07-02T07:45:56;20.70;99.90
25973;DHT22;13765;51.166;4.466;2023-07-02T07:48:22;20.80;99.90
25973;DHT22;13765;51.166;4.466;2023-07-02T07:50:48;20.90;99.90
25973;DHT22;13765;51.166;4.466;2023-07-02T07:53:14;21.10;99.90
25973;DHT22;13765;51.166;4.466;2023-07-02T07:55:39;21.10;99.90
25973;DHT22;13765;51.166;4.466;2023-07-02T07:58:05;21.10;99.90
25973;DHT22;13765;51.166;4.466;2023-07-02T08:00:33;21.10;99.90
25973;DHT22;13765;51.166;4.466;2023-07-02T08:02:59;21.20;99.90
25973;DHT22;13765;51.166;4.466;2023-07-02T08:05:26;21.40;99.90
25973;DHT22;13765;51.166;4.466;2023-07-02T08:07:51;21.60;99.90
25973;DHT22;13765;51.166;4.466;2023-07-02T08:10:19;21.70;99.90
25973;DHT22;13765;51.166;4.466;2023-07-02T08:12:45;21.60;99.90
25973;DHT22;13765;51.166;4.466;2023-07-02T08:15:12;21.70;99.90
25973;DHT22;13765;51.166;4.466;2023-07-02T08:17:38;21.60;99.90
25973;DHT22;13765;51.166;4.466;2023-07-02T08:20:04;21.90;99.90
25973;DHT22;13765;51.166;4.466;2023-07-02T08:22:30;22.00;99.90
25973;DHT22;13765;51.166;4.466;2023-07-02T08:24:58;21.80;99.90
25973;DHT22;13765;51.166;4.466;2023-07-02T08:27:26;21.80;99.90
25973;DHT22;13765;51.166;4.466;2023-07-02T08:29:52;22.00;99.90
25973;DHT22;13765;51.166;4.466;2023-07-02T08:32:18;22.10;99.90
25973;DHT22;13765;51.166;4.466;2023-07-02T08:34:43;21.70;99.90
25973;DHT22;13765;51.166;4.466;2023-07-02T08:37:09;21.50;99.90
25973;DHT22;13765;51.166;4.466;2023-07-02T08:39:35;21.50;99.90
25973;DHT22;13765;51.166;4.466;2023-07-02T08:42:03;21.30;99.90
25973;DHT22;13765;51.166;4.466;2023-07-02T08:44:28;21.30;99.90
25973;DHT22;13765;51.166;4.466;2023-07-02T08:46:54;21.50;99.90
25973;DHT22;13765;51.166;4.466;2023-07-02T08:49:22;21.80;99.90
25973;DHT22;13765;51.166;4.466;2023-07-02T08:51:50;22.00;99.90
25973;DHT22;13765;51.166;4.466;2023-07-02T08:54:19;22.20;99.90
25973;DHT22;13765;51.166;4.466;2023-07-02T08:56:46;22.40;99.90
25973;DHT22;13765;51.166;4.466;2023-07-02T08:59:12;22.60;99.90
25973;DHT22;13765;51.166;4.466;2023-07-02T09:01:52;22.90;99.90
25973;DHT22;13765;51.166;4.466;2023-07-02T09:04:23;22.90;99.90
25973;DHT22;13765;51.166;4.466;2023-07-02T09:07:11;22.10;99.90
25973;DHT22;13765;51.166;4.466;2023-07-02T09:09:49;21.80;99.90
25973;DHT22;13765;51.166;4.466;2023-07-02T09:12:25;22.00;99.90
25973;DHT22;13765;51.166;4.466;2023-07-02T09:15:01;21.90;99.90
25973;DHT22;13765;51.166;4.466;2023-07-02T09:17:30;21.90;99.90
25973;DHT22;13765;51.166;4.466;2023-07-02T09:19:57;21.70;99.90
25973;DHT22;13765;51.166;4.466;2023-07-02T09:22:24;21.70;99.90
25973;DHT22;13765;51.166;4.466;2023-07-02T09:24:59;21.70;99.90
25973;DHT22;13765;51.166;4.466;2023-07-02T09:27:38;21.80;99.90
25973;DHT22;13765;51.166;4.466;2023-07-02T09:30:14;22.10;99.90
25973;DHT22;13765;51.166;4.466;2023-07-02T09:32:44;22.10;99.90
25973;DHT22;13765;51.166;4.466;2023-07-02T09:35:12;22.00;99.90
25973;DHT22;13765;51.166;4.466;2023-07-02T09:37:39;21.80;99.90
25973;DHT22;13765;51.166;4.466;2023-07-02T09:40:07;21.50;99.90
25973;DHT22;13765;51.166;4.466;2023-07-02T09:42:35;21.60;99.90
25973;DHT22;13765;51.166;4.466;2023-07-02T09:45:02;21.90;99.90
25973;DHT22;13765;51.166;4.466;2023-07-02T09:47:31;22.00;99.90
25973;DHT22;13765;51.166;4.466;2023-07-02T09:50:04;21.90;99.90
25973;DHT22;13765;51.166;4.466;2023-07-02T09:52:34;21.60;99.90
25973;DHT22;13765;51.166;4.466;2023-07-02T09:55:00;21.50;99.90
25973;DHT22;13765;51.166;4.466;2023-07-02T09:57:25;21.20;99.90
25973;DHT22;13765;51.166;4.466;2023-07-02T09:59:52;21.10;99.90
25973;DHT22;13765;51.166;4.466;2023-07-02T10:02:20;20.90;99.90
25973;DHT22;13765;51.166;4.466;2023-07-02T10:04:48;21.30;99.90
25973;DHT22;13765;51.166;4.466;2023-07-02T10:07:30;21.60;99.90
25973;DHT22;13765;51.166;4.466;2023-07-02T10:09:56;21.50;99.90
25973;DHT22;13765;51.166;4.466;2023-07-02T10:14:50;20.90;99.90
25973;DHT22;13765;51.166;4.466;2023-07-02T10:17:32;21.00;99.90
25973;DHT22;13765;51.166;4.466;2023-07-02T10:20:03;21.10;99.90
25973;DHT22;13765;51.166;4.466;2023-07-02T10:22:49;21.10;99.90
25973;DHT22;13765;51.166;4.466;2023-07-02T10:25:26;21.30;99.90
25973;DHT22;13765;51.166;4.466;2023-07-02T10:27:52;21.50;99.90
25973;DHT22;13765;51.166;4.466;2023-07-02T10:30:18;21.60;99.90
25973;DHT22;13765;51.166;4.466;2023-07-02T10:32:44;22.30;99.90
25973;DHT22;13765;51.166;4.466;2023-07-02T10:35:17;23.00;99.90
25973;DHT22;13765;51.166;4.466;2023-07-02T10:37:43;23.10;99.90
25973;DHT22;13765;51.166;4.466;2023-07-02T10:40:10;23.20;99.90
25973;DHT22;13765;51.166;4.466;2023-07-02T10:42:49;23.00;99.90
25973;DHT22;13765;51.166;4.466;2023-07-02T10:45:16;22.90;99.90
25973;DHT22;13765;51.166;4.466;2023-07-02T10:47:44;22.90;99.90
25973;DHT22;13765;51.166;4.466;2023-07-02T10:50:20;23.20;99.90
25973;DHT22;13765;51.166;4.466;2023-07-02T10:52:49;23.40;99.90
25973;DHT22;13765;51.166;4.466;2023-07-02T10:55:19;23.50;99.90
25973;DHT22;13765;51.166;4.466;2023-07-02T10:57:45;23.70;99.90
25973;DHT22;13765;51.166;4.466;2023-07-02T11:00:13;23.50;99.90
25973;DHT22;13765;51.166;4.466;2023-07-02T11:02:39;23.20;99.90
25973;DHT22;13765;51.166;4.466;2023-07-02T11:05:10;23.10;99.90
25973;DHT22;13765;51.166;4.466;2023-07-02T11:07:40;22.90;99.90
25973;DHT22;13765;51.166;4.466;2023-07-02T11:10:07;22.60;99.90
25973;DHT22;13765;51.166;4.466;2023-07-02T11:12:33;22.40;99.90
25973;DHT22;13765;51.166;4.466;2023-07-02T11:15:13;22.40;99.90
25973;DHT22;13765;51.166;4.466;2023-07-02T11:17:39;22.50;99.90
25973;DHT22;13765;51.166;4.466;2023-07-02T11:20:09;22.10;99.90
25973;DHT22;13765;51.166;4.466;2023-07-02T11:22:36;22.40;99.90
25973;DHT22;13765;51.166;4.466;2023-07-02T11:25:28;22.90;99.90
25973;DHT22;13765;51.166;4.466;2023-07-02T11:28:06;23.50;99.90
25973;DHT22;13765;51.166;4.466;2023-07-02T11:30:32;23.80;99.90
25973;DHT22;13765;51.166;4.466;2023-07-02T11:32:58;24.40;99.90
25973;DHT22;13765;51.166;4.466;2023-07-02T11:35:34;24.90;99.90
25973;DHT22;13765;51.166;4.466;2023-07-02T11:38:00;25.00;99.90
25973;DHT22;13765;51.166;4.466;2023-07-02T11:40:28;24.90;99.90
25973;DHT22;13765;51.166;4.466;2023-07-02T11:42:54;24.70;99.90
25973;DHT22;13765;51.166;4.466;2023-07-02T11:45:21;24.90;99.90
25973;DHT22;13765;51.166;4.466;2023-07-02T11:47:47;25.50;99.90
25973;DHT22;13765;51.166;4.466;2023-07-02T11:50:13;25.70;99.90
25973;DHT22;13765;51.166;4.466;2023-07-02T11:52:39;25.20;99.90
25973;DHT22;13765;51.166;4.466;2023-07-02T11:55:05;25.00;99.90
25973;DHT22;13765;51.166;4.466;2023-07-02T11:57:30;24.70;99.90
25973;DHT22;13765;51.166;4.466;2023-07-02T11:59:56;24.40;99.90
25973;DHT22;13765;51.166;4.466;2023-07-02T12:02:22;23.70;99.90
25973;DHT22;13765;51.166;4.466;2023-07-02T12:04:47;23.90;99.90
25973;DHT22;13765;51.166;4.466;2023-07-02T12:07:13;24.20;99.90
25973;DHT22;13765;51.166;4.466;2023-07-02T12:09:39;24.60;99.90
25973;DHT22;13765;51.166;4.466;2023-07-02T12:12:05;24.90;99.90
25973;DHT22;13765;51.166;4.466;2023-07-02T12:14:31;25.20;99.90
25973;DHT22;13765;51.166;4.466;2023-07-02T12:16:56;25.50;99.90
25973;DHT22;13765;51.166;4.466;2023-07-02T12:19:24;25.60;99.90
25973;DHT22;13765;51.166;4.466;2023-07-02T12:21:50;25.30;99.90
25973;DHT22;13765;51.166;4.466;2023-07-02T12:24:15;25.40;99.90
25973;DHT22;13765;51.166;4.466;2023-07-02T12:26:42;25.40;99.90
25973;DHT22;13765;51.166;4.466;2023-07-02T12:29:10;25.20;99.90
25973;DHT22;13765;51.166;4.466;2023-07-02T12:31:36;24.90;99.90
25973;DHT22;13765;51.166;4.466;2023-07-02T12:34:02;24.70;99.90
25973;DHT22;13765;51.166;4.466;2023-07-02T12:36:28;24.50;99.90
25973;DHT22;13765;51.166;4.466;2023-07-02T12:38:54;24.20;99.90
25973;DHT22;13765;51.166;4.466;2023-07-02T12:41:19;24.50;99.90
25973;DHT22;13765;51.166;4.466;2023-07-02T12:43:45;25.10;99.90
25973;DHT22;13765;51.166;4.466;2023-07-02T12:46:13;25.60;99.90
25973;DHT22;13765;51.166;4.466;2023-07-02T12:48:41;25.20;99.90
25973;DHT22;13765;51.166;4.466;2023-07-02T12:51:07;25.00;99.90
25973;DHT22;13765;51.166;4.466;2023-07-02T12:53:34;24.60;99.90
25973;DHT22;13765;51.166;4.466;2023-07-02T12:56:00;24.00;99.90
25973;DHT22;13765;51.166;4.466;2023-07-02T12:58:26;23.90;99.90
25973;DHT22;13765;51.166;4.466;2023-07-02T13:00:51;23.70;99.90
25973;DHT22;13765;51.166;4.466;2023-07-02T13:03:19;24.10;99.90
25973;DHT22;13765;51.166;4.466;2023-07-02T13:05:45;24.60;99.90
25973;DHT22;13765;51.166;4.466;2023-07-02T13:08:15;25.00;99.90
25973;DHT22;13765;51.166;4.466;2023-07-02T13:10:43;25.60;99.90
25973;DHT22;13765;51.166;4.466;2023-07-02T13:13:09;25.60;99.90
25973;DHT22;13765;51.166;4.466;2023-07-02T13:15:37;25.70;99.90
25973;DHT22;13765;51.166;4.466;2023-07-02T13:18:06;25.80;99.90
25973;DHT22;13765;51.166;4.466;2023-07-02T13:20:34;25.90;99.90
25973;DHT22;13765;51.166;4.466;2023-07-02T13:22:59;26.30;99.10
25973;DHT22;13765;51.166;4.466;2023-07-02T13:25:25;26.30;99.70
25973;DHT22;13765;51.166;4.466;2023-07-02T13:27:51;26.30;99.90
25973;DHT22;13765;51.166;4.466;2023-07-02T13:30:17;26.70;97.90
25973;DHT22;13765;51.166;4.466;2023-07-02T13:32:42;27.10;97.90
25973;DHT22;13765;51.166;4.466;2023-07-02T13:35:10;27.00;96.90
25973;DHT22;13765;51.166;4.466;2023-07-02T13:37:36;26.60;97.30
25973;DHT22;13765;51.166;4.466;2023-07-02T13:40:02;26.50;98.60
25973;DHT22;13765;51.166;4.466;2023-07-02T13:42:29;26.50;98.20
25973;DHT22;13765;51.166;4.466;2023-07-02T13:44:55;26.50;98.60
25973;DHT22;13765;51.166;4.466;2023-07-02T13:47:20;26.40;97.50
25973;DHT22;13765;51.166;4.466;2023-07-02T13:49:46;25.90;97.40
25973;DHT22;13765;51.166;4.466;2023-07-02T13:52:11;25.90;97.70
25973;DHT22;13765;51.166;4.466;2023-07-02T13:54:37;25.70;97.90
25973;DHT22;13765;51.166;4.466;2023-07-02T13:57:03;25.50;98.00
25973;DHT22;13765;51.166;4.466;2023-07-02T13:59:31;25.80;99.90
25973;DHT22;13765;51.166;4.466;2023-07-02T14:01:57;26.10;98.50
25973;DHT22;13765;51.166;4.466;2023-07-02T14:04:22;26.60;99.00
25973;DHT22;13765;51.166;4.466;2023-07-02T14:06:48;26.10;98.30
25973;DHT22;13765;51.166;4.466;2023-07-02T14:09:14;25.90;98.60
25973;DHT22;13765;51.166;4.466;2023-07-02T14:11:42;25.60;98.80
25973;DHT22;13765;51.166;4.466;2023-07-02T14:14:08;25.80;99.30
25973;DHT22;13765;51.166;4.466;2023-07-02T14:16:37;26.00;99.10
25973;DHT22;13765;51.166;4.466;2023-07-02T14:19:02;26.10;98.10
25973;DHT22;13765;51.166;4.466;2023-07-02T14:21:28;25.60;98.80
25973;DHT22;13765;51.166;4.466;2023-07-02T14:23:54;25.30;99.20
25973;DHT22;13765;51.166;4.466;2023-07-02T14:26:19;25.50;98.80
25973;DHT22;13765;51.166;4.466;2023-07-02T14:28:47;25.70;99.90
25973;DHT22;13765;51.166;4.466;2023-07-02T14:31:13;25.90;98.10
25973;DHT22;13765;51.166;4.466;2023-07-02T14:33:38;26.00;98.90
25973;DHT22;13765;51.166;4.466;2023-07-02T14:36:05;25.90;97.40
25973;DHT22;13765;51.166;4.466;2023-07-02T14:38:32;25.80;98.20
25973;DHT22;13765;51.166;4.466;2023-07-02T14:40:58;25.40;98.90
25973;DHT22;13765;51.166;4.466;2023-07-02T14:43:27;25.50;97.90
25973;DHT22;13765;51.166;4.466;2023-07-02T14:45:54;25.30;98.60
25973;DHT22;13765;51.166;4.466;2023-07-02T14:48:20;25.10;98.40
25973;DHT22;13765;51.166;4.466;2023-07-02T14:50:52;25.10;99.70
25973;DHT22;13765;51.166;4.466;2023-07-02T14:53:19;25.00;99.20
25973;DHT22;13765;51.166;4.466;2023-07-02T14:55:46;24.80;99.90
25973;DHT22;13765;51.166;4.466;2023-07-02T14:58:13;24.80;99.90
25973;DHT22;13765;51.166;4.466;2023-07-02T15:00:56;25.00;99.00
25973;DHT22;13765;51.166;4.466;2023-07-02T15:03:23;25.30;99.30
25973;DHT22;13765;51.166;4.466;2023-07-02T15:05:52;25.40;98.60
25973;DHT22;13765;51.166;4.466;2023-07-02T15:08:18;25.40;98.90
25973;DHT22;13765;51.166;4.466;2023-07-02T15:10:49;25.20;99.90
25973;DHT22;13765;51.166;4.466;2023-07-02T15:13:15;25.10;99.90
25973;DHT22;13765;51.166;4.466;2023-07-02T15:15:46;25.00;98.90
25973;DHT22;13765;51.166;4.466;2023-07-02T15:18:14;24.90;98.70
25973;DHT22;13765;51.166;4.466;2023-07-02T15:20:43;24.80;99.90
25973;DHT22;13765;51.166;4.466;2023-07-02T15:23:10;24.80;98.30
25973;DHT22;13765;51.166;4.466;2023-07-02T15:25:38;24.70;98.40
25973;DHT22;13765;51.166;4.466;2023-07-02T15:28:04;24.80;99.00
25973;DHT22;13765;51.166;4.466;2023-07-02T15:30:30;24.90;98.80
25973;DHT22;13765;51.166;4.466;2023-07-02T15:32:56;25.30;99.20
25973;DHT22;13765;51.166;4.466;2023-07-02T15:35:22;25.50;98.20
25973;DHT22;13765;51.166;4.466;2023-07-02T15:37:48;25.60;99.70